createdAt,value
2022-09-25T00:01:24.681Z,88.66
2022-09-25T00:03:51.248Z,88.70
2022-09-25T00:06:20.456Z,89.34
2022-09-25T00:08:47.025Z,88.99
2022-09-25T00:11:17.202Z,89.03
2022-09-25T00:13:45.759Z,89.25
2022-09-25T00:16:15.154Z,89.23
2022-09-25T00:19:01.238Z,89.21
2022-09-25T00:21:30.866Z,88.94
2022-09-25T00:24:03.097Z,89.57
2022-09-25T00:26:31.370Z,89.16
2022-09-25T00:29:00.442Z,89.39
2022-09-25T00:31:28.743Z,89.32
2022-09-25T00:33:59.512Z,89.60
2022-09-25T00:36:26.209Z,89.31
2022-09-25T00:38:53.044Z,89.92
2022-09-25T00:41:21.594Z,89.73
2022-09-25T00:43:51.116Z,89.73
2022-09-25T00:46:20.975Z,89.38
2022-09-25T00:48:56.197Z,89.70
2022-09-25T00:51:29.725Z,89.54
2022-09-25T00:54:03.733Z,89.76
2022-09-25T00:56:37.574Z,89.65
2022-09-25T00:59:07.211Z,89.62
2022-09-25T01:01:33.799Z,89.62
2022-09-25T01:04:00.649Z,89.76
2022-09-25T01:06:27.779Z,89.80
2022-09-25T01:08:55.518Z,89.58
2022-09-25T01:11:21.998Z,89.71
2022-09-25T01:13:49.116Z,89.62
2022-09-25T01:16:38.597Z,90.02
2022-09-25T01:19:26.464Z,89.75
2022-09-25T01:21:59.352Z,89.55
2022-09-25T01:24:49.481Z,89.75
2022-09-25T01:27:21.999Z,89.64
2022-09-25T01:30:11.200Z,89.42
2022-09-25T01:32:55.658Z,89.59
2022-09-25T01:35:40.929Z,89.12
2022-09-25T01:38:22.915Z,89.51
2022-09-25T01:40:56.438Z,89.00
2022-09-25T01:43:31.104Z,88.95
2022-09-25T01:46:05.859Z,88.88
2022-09-25T01:48:34.793Z,88.89
2022-09-25T01:51:07.082Z,89.21
2022-09-25T01:53:42.538Z,89.14
2022-09-25T01:56:18.860Z,88.82
2022-09-25T01:58:54.671Z,88.84
2022-09-25T02:01:30.579Z,89.42
2022-09-25T02:04:03.461Z,88.85
2022-09-25T02:06:33.061Z,89.08
2022-09-25T02:09:04.652Z,88.88
2022-09-25T02:11:39.797Z,88.85
2022-09-25T02:14:18.285Z,89.02
2022-09-25T02:16:50.120Z,88.61
2022-09-25T02:19:35.705Z,88.61
2022-09-25T02:22:07.993Z,88.47
2022-09-25T02:24:58.933Z,88.88
2022-09-25T02:27:28.301Z,88.58
2022-09-25T02:29:56.369Z,88.93
2022-09-25T02:32:28.761Z,89.19
2022-09-25T02:34:57.736Z,88.92
2022-09-25T02:37:24.270Z,88.65
2022-09-25T02:39:54.392Z,88.95
2022-09-25T02:42:39.948Z,88.54
2022-09-25T02:45:12.088Z,88.66
2022-09-25T02:48:05.544Z,89.02
2022-09-25T02:50:47.224Z,88.98
2022-09-25T02:53:21.695Z,88.74
2022-09-25T02:55:58.496Z,88.24
2022-09-25T02:58:35.425Z,88.09
2022-09-25T03:01:05.777Z,88.04
2022-09-25T03:03:34.958Z,87.84
2022-09-25T03:06:03.521Z,87.80
2022-09-25T03:08:39.104Z,87.77
2022-09-25T03:11:07.865Z,87.65
2022-09-25T03:13:35.006Z,87.73
2022-09-25T03:16:36.059Z,88.55
2022-09-25T03:19:02.767Z,88.83
2022-09-25T03:21:29.293Z,89.22
2022-09-25T03:23:58.763Z,89.24
2022-09-25T03:26:27.223Z,89.47
2022-09-25T03:28:54.176Z,89.92
2022-09-25T03:31:20.806Z,90.13
2022-09-25T03:33:48.965Z,90.16
2022-09-25T03:36:21.451Z,89.97
2022-09-25T03:38:51.342Z,89.43
2022-09-25T03:41:21.134Z,89.31
2022-09-25T03:43:51.217Z,89.41
2022-09-25T03:46:20.795Z,88.83
2022-09-25T03:48:47.458Z,88.58
2022-09-25T03:51:14.277Z,89.24
2022-09-25T03:53:41.084Z,89.17
2022-09-25T03:56:11.336Z,89.07
2022-09-25T03:58:38.589Z,88.57
2022-09-25T04:01:06.258Z,88.69
2022-09-25T04:03:33.992Z,88.62
2022-09-25T04:06:04.786Z,89.38
2022-09-25T04:08:33.062Z,89.45
2022-09-25T04:11:00.409Z,89.59
2022-09-25T04:13:32.082Z,89.52
2022-09-25T04:16:01.183Z,89.32
2022-09-25T04:18:31.723Z,89.48
2022-09-25T04:21:03.306Z,89.54
2022-09-25T04:23:29.814Z,89.55
2022-09-25T04:25:57.033Z,89.74
2022-09-25T04:28:24.148Z,89.90
2022-09-25T04:30:51.081Z,89.84
2022-09-25T04:33:36.648Z,89.81
2022-09-25T04:36:04.476Z,89.40
2022-09-25T04:38:32.294Z,89.04
2022-09-25T04:41:00.188Z,88.95
2022-09-25T04:43:32.063Z,89.19
2022-09-25T04:46:02.545Z,89.00
2022-09-25T04:48:29.628Z,88.95
2022-09-25T04:50:56.515Z,89.13
2022-09-25T04:53:22.977Z,88.81
2022-09-25T04:55:49.472Z,89.34
2022-09-25T04:58:15.950Z,89.29
2022-09-25T05:00:42.651Z,89.46
2022-09-25T05:03:09.404Z,89.34
2022-09-25T05:05:36.081Z,88.91
2022-09-25T05:08:03.369Z,88.67
2022-09-25T05:10:32.640Z,88.68
2022-09-25T05:13:03.989Z,88.47
2022-09-25T05:15:32.114Z,88.50
2022-09-25T05:18:01.530Z,90.51
2022-09-25T05:20:28.338Z,90.89
2022-09-25T05:22:57.879Z,90.87
2022-09-25T05:25:25.776Z,90.65
2022-09-25T05:27:55.677Z,90.58
2022-09-25T05:30:22.776Z,90.52
2022-09-25T05:32:53.290Z,90.42
2022-09-25T05:35:22.061Z,90.48
2022-09-25T05:37:48.591Z,90.12
2022-09-25T05:40:17.662Z,90.18
2022-09-25T05:42:45.003Z,90.20
2022-09-25T05:45:12.530Z,89.65
2022-09-25T05:47:40.006Z,89.42
2022-09-25T05:50:07.754Z,89.59
2022-09-25T05:52:35.358Z,89.48
2022-09-25T05:55:03.365Z,89.40
2022-09-25T05:57:34.180Z,89.75
2022-09-25T06:00:01.692Z,89.77
2022-09-25T06:02:38.305Z,89.60
2022-09-25T06:05:05.258Z,89.57
2022-09-25T06:07:31.746Z,90.57
2022-09-25T06:09:58.238Z,90.73
2022-09-25T06:12:24.718Z,91.19
2022-09-25T06:14:52.348Z,91.17
2022-09-25T06:17:19.035Z,91.29
2022-09-25T06:19:45.870Z,91.34
2022-09-25T06:22:12.366Z,91.54
2022-09-25T06:24:38.916Z,91.44
2022-09-25T06:27:08.881Z,92.45
2022-09-25T06:29:36.023Z,92.09
2022-09-25T06:32:03.464Z,92.42
2022-09-25T06:34:29.990Z,92.76
2022-09-25T06:36:56.474Z,92.96
2022-09-25T06:39:22.975Z,93.25
2022-09-25T06:41:52.855Z,93.29
2022-09-25T06:44:22.371Z,93.17
2022-09-25T06:46:50.156Z,93.48
2022-09-25T06:49:16.762Z,93.68
2022-09-25T06:51:43.250Z,94.70
2022-09-25T06:54:09.908Z,94.20
2022-09-25T06:56:36.454Z,94.54
2022-09-25T06:59:03.027Z,95.58
2022-09-25T07:01:29.632Z,95.81
2022-09-25T07:03:56.170Z,96.06
2022-09-25T07:06:26.799Z,96.14
2022-09-25T07:08:53.303Z,96.11
2022-09-25T07:11:22.044Z,95.75
2022-09-25T07:13:54.861Z,95.74
2022-09-25T07:16:29.626Z,96.50
2022-09-25T07:19:03.985Z,96.88
2022-09-25T07:21:32.069Z,96.86
2022-09-25T07:23:58.814Z,96.84
2022-09-25T07:26:28.341Z,97.03
2022-09-25T07:28:56.483Z,97.51
2022-09-25T07:31:26.158Z,97.70
2022-09-25T07:33:52.868Z,97.20
2022-09-25T07:36:19.867Z,97.36
2022-09-25T07:38:53.405Z,97.45
2022-09-25T07:41:22.599Z,97.53
2022-09-25T07:44:06.294Z,97.58
2022-09-25T07:46:43.418Z,97.33
2022-09-25T07:49:09.984Z,97.59
2022-09-25T07:51:36.505Z,97.47
2022-09-25T07:54:03.036Z,97.90
2022-09-25T07:56:29.533Z,97.48
2022-09-25T07:58:56.003Z,97.53
2022-09-25T08:01:22.552Z,97.76
2022-09-25T08:03:49.315Z,97.86
2022-09-25T08:06:15.854Z,97.14
2022-09-25T08:08:44.058Z,96.84
2022-09-25T08:11:13.086Z,96.90
2022-09-25T08:13:41.049Z,96.51
2022-09-25T08:16:13.909Z,96.42
2022-09-25T08:18:42.646Z,96.21
2022-09-25T08:21:10.524Z,94.94
2022-09-25T08:23:37.105Z,95.43
2022-09-25T08:26:03.646Z,95.60
2022-09-25T08:28:30.128Z,93.79
2022-09-25T08:30:59.493Z,93.34
2022-09-25T08:33:26.271Z,93.14
2022-09-25T08:36:00.993Z,93.16
2022-09-25T08:38:28.628Z,93.18
2022-09-25T08:41:02.034Z,93.43
2022-09-25T08:43:30.181Z,92.74
2022-09-25T08:46:19.086Z,92.77
2022-09-25T08:49:02.082Z,92.08
2022-09-25T08:51:45.628Z,91.61
2022-09-25T08:54:22.427Z,90.84
2022-09-25T08:56:51.536Z,89.77
2022-09-25T08:59:40.506Z,90.00
2022-09-25T09:02:23.345Z,89.36
2022-09-25T09:04:56.247Z,87.22
2022-09-25T09:07:28.095Z,88.52
2022-09-25T09:10:08.457Z,88.09
2022-09-25T09:12:48.387Z,87.39
2022-09-25T09:15:23.752Z,86.39
2022-09-25T09:17:50.297Z,86.08
2022-09-25T09:20:27.679Z,84.66
2022-09-25T09:22:57.577Z,83.67
2022-09-25T09:25:48.187Z,82.28
2022-09-25T09:28:48.315Z,83.31
2022-09-25T09:31:51.583Z,83.38
2022-09-25T09:35:00.927Z,82.22
2022-09-25T09:37:51.225Z,81.17
2022-09-25T09:40:51.759Z,82.86
2022-09-25T09:43:57.775Z,83.09
2022-09-25T09:46:48.608Z,82.03
2022-09-25T09:49:22.085Z,80.54
2022-09-25T09:52:01.367Z,78.86
2022-09-25T09:54:38.553Z,79.13
2022-09-25T09:57:12.945Z,76.42
2022-09-25T09:59:49.048Z,75.85
2022-09-25T10:02:38.040Z,75.24
2022-09-25T10:05:12.808Z,73.75
2022-09-25T10:07:42.266Z,73.16
2022-09-25T10:10:16.912Z,74.54
2022-09-25T10:12:54.960Z,72.92
2022-09-25T10:15:30.094Z,74.39
2022-09-25T10:18:00.846Z,73.15
2022-09-25T10:20:39.553Z,73.07
2022-09-25T10:23:06.494Z,71.59
2022-09-25T10:25:39.047Z,71.95
2022-09-25T10:28:37.835Z,73.26
2022-09-25T10:31:08.841Z,72.62
2022-09-25T10:33:35.594Z,71.73
2022-09-25T10:36:02.265Z,71.21
2022-09-25T10:38:29.298Z,69.67
2022-09-25T10:41:09.307Z,70.42
2022-09-25T10:43:50.936Z,70.17
2022-09-25T10:46:47.034Z,69.20
2022-09-25T10:50:04.042Z,68.58
2022-09-25T10:52:46.017Z,67.11
2022-09-25T10:55:34.970Z,65.94
2022-09-25T10:58:10.499Z,67.97
2022-09-25T11:00:41.883Z,62.17
2022-09-25T11:03:20.331Z,64.57
2022-09-25T11:06:01.446Z,66.45
2022-09-25T11:08:30.436Z,63.35
2022-09-25T11:10:59.145Z,63.53
2022-09-25T11:13:36.813Z,60.47
2022-09-25T11:16:10.286Z,62.31
2022-09-25T11:18:51.134Z,62.88
2022-09-25T11:21:43.061Z,63.62
2022-09-25T11:24:23.697Z,65.22
2022-09-25T11:27:31.227Z,62.97
2022-09-25T11:30:10.503Z,62.24
2022-09-25T11:32:54.450Z,62.90
2022-09-25T11:35:26.748Z,61.27
2022-09-25T11:38:44.598Z,62.62
2022-09-25T11:41:22.966Z,60.65
2022-09-25T11:43:57.932Z,58.71
2022-09-25T11:46:35.437Z,57.19
2022-09-25T11:49:22.413Z,57.87
2022-09-25T11:52:20.224Z,58.75
2022-09-25T11:55:07.982Z,57.57
2022-09-25T11:57:43.609Z,58.46
2022-09-25T12:00:20.177Z,58.25
2022-09-25T12:03:13.189Z,59.51
2022-09-25T12:06:05.185Z,59.99
2022-09-25T12:09:07.025Z,59.26
2022-09-25T12:11:50.473Z,58.94
2022-09-25T12:14:34.476Z,59.46
2022-09-25T12:17:12.738Z,59.53
2022-09-25T12:19:50.005Z,60.86
2022-09-25T12:22:26.127Z,59.41
2022-09-25T12:24:55.500Z,60.10
2022-09-25T12:27:40.649Z,61.02
2022-09-25T12:30:16.559Z,60.88
2022-09-25T12:33:24.410Z,60.57
2022-09-25T12:36:22.483Z,61.74
2022-09-25T12:39:08.476Z,61.27
2022-09-25T12:41:50.722Z,61.56
2022-09-25T12:44:27.597Z,61.44
2022-09-25T12:47:01.850Z,61.57
2022-09-25T12:50:00.416Z,62.55
2022-09-25T12:52:34.717Z,62.12
2022-09-25T12:55:13.598Z,62.05
2022-09-25T12:57:50.118Z,61.21
2022-09-25T13:00:21.263Z,61.56
2022-09-25T13:03:11.233Z,61.87
2022-09-25T13:05:45.300Z,59.63
2022-09-25T13:08:27.013Z,60.37
2022-09-25T13:10:55.899Z,61.61
2022-09-25T13:13:26.963Z,57.59
2022-09-25T13:15:57.055Z,59.22
2022-09-25T13:18:27.101Z,57.28
2022-09-25T13:20:55.594Z,57.80
2022-09-25T13:23:35.946Z,58.75
2022-09-25T13:26:09.759Z,55.22
2022-09-25T13:28:40.391Z,54.78
2022-09-25T13:31:12.125Z,52.29
2022-09-25T13:33:46.712Z,51.09
2022-09-25T13:36:39.589Z,51.89
2022-09-25T13:39:36.693Z,52.18
2022-09-25T13:42:07.550Z,50.47
2022-09-25T13:45:00.906Z,52.63
2022-09-25T13:47:27.307Z,51.85
2022-09-25T13:50:11.772Z,51.44
2022-09-25T13:52:41.257Z,50.35
2022-09-25T13:55:19.391Z,50.89
2022-09-25T13:57:55.738Z,52.05
2022-09-25T14:00:23.229Z,52.08
2022-09-25T14:02:50.352Z,51.43
2022-09-25T14:05:21.846Z,51.72
2022-09-25T14:07:50.733Z,55.38
2022-09-25T14:10:17.963Z,50.25
2022-09-25T14:12:48.061Z,50.59
2022-09-25T14:15:35.371Z,51.09
2022-09-25T14:18:08.297Z,50.85
2022-09-25T14:20:44.323Z,51.85
2022-09-25T14:23:24.558Z,52.09
2022-09-25T14:26:08.671Z,52.25
2022-09-25T14:28:47.473Z,53.28
2022-09-25T14:31:29.268Z,53.64
2022-09-25T14:34:12.963Z,54.40
2022-09-25T14:37:00.381Z,55.27
2022-09-25T14:39:48.644Z,54.81
2022-09-25T14:42:37.436Z,55.67
2022-09-25T14:45:25.330Z,55.24
2022-09-25T14:47:55.897Z,54.18
2022-09-25T14:50:26.257Z,55.37
2022-09-25T14:52:57.996Z,54.22
2022-09-25T14:55:28.817Z,54.82
2022-09-25T14:57:58.109Z,55.98
2022-09-25T15:00:24.845Z,56.58
2022-09-25T15:02:55.120Z,59.30
2022-09-25T15:05:21.605Z,59.04
2022-09-25T15:07:48.125Z,60.75
2022-09-25T15:10:41.045Z,60.55
2022-09-25T15:13:19.834Z,61.11
2022-09-25T15:16:14.171Z,61.97
2022-09-25T15:18:42.876Z,60.92
2022-09-25T15:21:33.483Z,61.40
2022-09-25T15:24:05.031Z,60.18
2022-09-25T15:26:33.260Z,61.38
2022-09-25T15:28:59.959Z,59.54
2022-09-25T15:31:26.590Z,59.72
2022-09-25T15:34:24.220Z,60.81
2022-09-25T15:36:51.480Z,60.50
2022-09-25T15:39:25.976Z,59.66
2022-09-25T15:41:52.587Z,59.42
2022-09-25T15:44:24.664Z,59.35
2022-09-25T15:46:54.180Z,59.20
2022-09-25T15:49:27.944Z,60.77
2022-09-25T15:52:00.197Z,60.69
2022-09-25T15:54:38.389Z,60.97
2022-09-25T15:57:13.628Z,61.32
2022-09-25T16:00:05.423Z,61.92
2022-09-25T16:03:00.011Z,61.81
2022-09-25T16:05:32.784Z,59.82
2022-09-25T16:08:23.994Z,59.00
2022-09-25T16:11:05.065Z,58.11
2022-09-25T16:13:32.788Z,56.04
2022-09-25T16:15:59.529Z,57.46
2022-09-25T16:18:36.191Z,57.18
2022-09-25T16:21:14.660Z,57.62
2022-09-25T16:23:42.981Z,55.92
2022-09-25T16:26:22.451Z,56.19
2022-09-25T16:28:55.739Z,54.91
2022-09-25T16:31:24.978Z,54.87
2022-09-25T16:33:55.913Z,56.28
2022-09-25T16:36:24.681Z,56.44
2022-09-25T16:39:12.912Z,56.75
2022-09-25T16:41:46.022Z,55.77
2022-09-25T16:44:25.196Z,56.59
2022-09-25T16:46:52.172Z,55.70
2022-09-25T16:49:22.094Z,55.53
2022-09-25T16:51:51.160Z,55.56
2022-09-25T16:54:19.984Z,56.65
2022-09-25T16:56:48.000Z,56.68
2022-09-25T16:59:22.056Z,57.38
2022-09-25T17:01:51.516Z,58.55
2022-09-25T17:04:23.761Z,57.77
2022-09-25T17:06:50.349Z,57.94
2022-09-25T17:09:17.940Z,58.00
2022-09-25T17:11:46.764Z,57.59
2022-09-25T17:14:24.396Z,58.47
2022-09-25T17:16:52.539Z,56.94
2022-09-25T17:19:20.155Z,57.40
2022-09-25T17:21:50.053Z,58.67
2022-09-25T17:24:18.467Z,58.65
2022-09-25T17:26:45.312Z,58.37
2022-09-25T17:29:12.128Z,58.68
2022-09-25T17:31:39.657Z,59.11
2022-09-25T17:34:16.157Z,60.91
2022-09-25T17:36:42.812Z,60.04
2022-09-25T17:39:09.549Z,61.15
2022-09-25T17:41:37.033Z,60.06
2022-09-25T17:44:04.657Z,60.52
2022-09-25T17:46:35.924Z,60.46
2022-09-25T17:49:03.569Z,60.96
2022-09-25T17:51:30.522Z,61.02
2022-09-25T17:53:59.219Z,60.20
2022-09-25T17:56:29.422Z,61.81
2022-09-25T17:58:57.467Z,62.14
2022-09-25T18:01:27.950Z,61.83
2022-09-25T18:03:56.598Z,62.13
2022-09-25T18:06:24.397Z,62.84
2022-09-25T18:08:51.741Z,63.30
2022-09-25T18:11:18.276Z,62.97
2022-09-25T18:13:45.298Z,62.87
2022-09-25T18:16:21.702Z,63.31
2022-09-25T18:19:07.035Z,63.69
2022-09-25T18:21:56.550Z,63.47
2022-09-25T18:24:23.197Z,64.08
2022-09-25T18:26:53.608Z,64.58
2022-09-25T18:29:21.570Z,64.52
2022-09-25T18:31:48.736Z,64.29
2022-09-25T18:34:15.965Z,64.71
2022-09-25T18:36:43.024Z,65.00
2022-09-25T18:39:10.398Z,64.83
2022-09-25T18:41:38.152Z,65.13
2022-09-25T18:44:07.285Z,65.21
2022-09-25T18:46:35.791Z,65.09
2022-09-25T18:49:02.472Z,65.18
2022-09-25T18:51:28.968Z,65.17
2022-09-25T18:53:55.929Z,65.16
2022-09-25T18:56:22.515Z,65.47
2022-09-25T18:58:49.793Z,65.69
2022-09-25T19:01:16.379Z,65.55
2022-09-25T19:03:43.079Z,65.61
2022-09-25T19:06:09.900Z,65.61
2022-09-25T19:08:36.394Z,65.69
2022-09-25T19:11:02.985Z,65.74
2022-09-25T19:13:30.140Z,65.94
2022-09-25T19:15:58.594Z,65.81
2022-09-25T19:18:25.150Z,65.60
2022-09-25T19:20:54.210Z,66.25
2022-09-25T19:23:22.163Z,66.26
2022-09-25T19:25:53.573Z,66.84
2022-09-25T19:28:23.544Z,66.47
2022-09-25T19:31:03.303Z,67.30
2022-09-25T19:33:33.276Z,67.20
2022-09-25T19:36:02.869Z,67.54
2022-09-25T19:38:35.633Z,67.71
2022-09-25T19:41:02.195Z,67.97
2022-09-25T19:43:28.785Z,67.96
2022-09-25T19:45:56.249Z,68.10
2022-09-25T19:48:23.989Z,68.28
2022-09-25T19:50:50.582Z,68.21
2022-09-25T19:53:18.831Z,68.32
2022-09-25T19:55:54.717Z,69.40
2022-09-25T19:58:23.564Z,68.96
2022-09-25T20:00:50.944Z,69.21
2022-09-25T20:03:17.989Z,69.19
2022-09-25T20:05:44.566Z,69.53
2022-09-25T20:08:11.523Z,70.11
2022-09-25T20:10:38.083Z,69.80
2022-09-25T20:13:06.119Z,70.17
2022-09-25T20:15:33.665Z,70.66
2022-09-25T20:18:00.503Z,70.15
2022-09-25T20:20:29.244Z,70.55
2022-09-25T20:22:56.403Z,71.05
2022-09-25T20:25:23.451Z,71.16
2022-09-25T20:27:51.185Z,70.76
2022-09-25T20:30:18.858Z,70.65
2022-09-25T20:32:45.885Z,70.77
2022-09-25T20:35:12.480Z,71.08
2022-09-25T20:37:39.186Z,70.86
2022-09-25T20:40:06.886Z,70.69
2022-09-25T20:42:33.902Z,70.64
2022-09-25T20:45:00.471Z,70.68
2022-09-25T20:47:33.345Z,70.73
2022-09-25T20:50:00.795Z,70.72
2022-09-25T20:52:28.243Z,71.30
2022-09-25T20:54:56.323Z,71.42
2022-09-25T20:57:22.881Z,70.96
2022-09-25T20:59:49.419Z,71.28
2022-09-25T21:02:15.961Z,71.41
2022-09-25T21:04:44.849Z,71.04
2022-09-25T21:07:15.996Z,71.15
2022-09-25T21:09:43.600Z,71.28
2022-09-25T21:12:10.164Z,71.67
2022-09-25T21:14:36.978Z,72.05
2022-09-25T21:17:03.810Z,72.06
2022-09-25T21:19:31.693Z,72.02
2022-09-25T21:21:58.189Z,72.50
2022-09-25T21:24:24.728Z,72.56
2022-09-25T21:26:51.272Z,72.57
2022-09-25T21:29:18.584Z,72.69
2022-09-25T21:31:49.962Z,72.81
2022-09-25T21:34:17.754Z,72.32
2022-09-25T21:36:44.276Z,72.89
2022-09-25T21:39:11.632Z,73.27
2022-09-25T21:41:38.293Z,73.08
2022-09-25T21:44:07.667Z,73.39
2022-09-25T21:46:34.831Z,73.33
2022-09-25T21:49:03.922Z,73.06
2022-09-25T21:51:33.193Z,73.26
2022-09-25T21:54:00.978Z,73.67
2022-09-25T21:56:30.329Z,73.66
2022-09-25T21:58:57.928Z,74.23
2022-09-25T22:01:29.249Z,73.78
2022-09-25T22:03:57.696Z,73.94
2022-09-25T22:06:27.201Z,73.89
2022-09-25T22:08:59.587Z,74.11
2022-09-25T22:11:26.985Z,73.78
2022-09-25T22:13:55.827Z,74.73
2022-09-25T22:16:28.311Z,74.53
2022-09-25T22:19:19.339Z,74.73
2022-09-25T22:21:47.912Z,75.22
2022-09-25T22:24:14.859Z,74.72
2022-09-25T22:26:43.431Z,75.23
2022-09-25T22:29:10.635Z,75.26
2022-09-25T22:31:38.476Z,75.33
2022-09-25T22:34:08.007Z,75.39
2022-09-25T22:36:38.730Z,75.61
2022-09-25T22:39:06.359Z,75.47
2022-09-25T22:41:33.126Z,75.75
2022-09-25T22:44:00.909Z,75.41
2022-09-25T22:46:28.427Z,75.67
2022-09-25T22:48:55.158Z,75.35
2022-09-25T22:51:23.822Z,75.45
2022-09-25T22:53:51.269Z,76.02
2022-09-25T22:56:20.981Z,76.16
2022-09-25T22:58:50.339Z,76.24
2022-09-25T23:01:20.980Z,76.06
2022-09-25T23:03:47.567Z,75.92
2022-09-25T23:06:14.389Z,76.42
2022-09-25T23:08:40.929Z,76.10
2022-09-25T23:11:08.453Z,76.29
2022-09-25T23:13:36.478Z,76.57
2022-09-25T23:16:07.981Z,76.18
2022-09-25T23:18:36.522Z,76.49
2022-09-25T23:21:04.097Z,76.21
2022-09-25T23:23:30.539Z,75.58
2022-09-25T23:26:01.925Z,75.80
2022-09-25T23:28:28.494Z,75.81
2022-09-25T23:30:55.037Z,75.93
2022-09-25T23:33:21.544Z,76.10
2022-09-25T23:35:48.008Z,75.89
2022-09-25T23:38:14.452Z,75.73
2022-09-25T23:40:41.054Z,76.04
2022-09-25T23:43:07.627Z,76.32
2022-09-25T23:45:34.208Z,76.02
2022-09-25T23:48:00.818Z,76.14
2022-09-25T23:50:27.298Z,76.51
2022-09-25T23:52:53.762Z,76.44
2022-09-25T23:55:20.312Z,76.46
2022-09-25T23:57:46.840Z,76.03
